createdAt,value
2023-03-02T00:04:51.557Z,102217.72
2023-03-02T00:12:29.335Z,102215.91
2023-03-02T00:20:08.447Z,102214.97
2023-03-02T00:27:44.421Z,102208.56
2023-03-02T00:35:19.315Z,102215.16
2023-03-02T00:42:54.704Z,102203.50
2023-03-02T00:50:28.582Z,102204.03
2023-03-02T00:58:04.448Z,102208.13
2023-03-02T01:05:39.015Z,102206.41
2023-03-02T01:13:14.283Z,102203.53
2023-03-02T01:20:48.031Z,102208.66
2023-03-02T01:28:23.235Z,102195.28
2023-03-02T01:35:57.214Z,102199.38
2023-03-02T01:43:32.757Z,102181.03
2023-03-02T01:51:08.836Z,102175.28
2023-03-02T01:58:45.526Z,102170.91
2023-03-02T02:06:24.980Z,102161.09
2023-03-02T02:14:02.081Z,102156.53
2023-03-02T02:21:36.308Z,102150.09
2023-03-02T02:29:15.397Z,102148.28
2023-03-02T02:36:52.064Z,102154.09
2023-03-02T02:44:27.707Z,102151.34
2023-03-02T02:52:01.663Z,102155.69
2023-03-02T02:59:40.090Z,102144.44
2023-03-02T03:07:20.011Z,102145.34
2023-03-02T03:14:56.100Z,102148.91
2023-03-02T03:22:30.231Z,102146.41
2023-03-02T03:37:58.107Z,102138.69
2023-03-02T03:45:33.542Z,102135.81
2023-03-02T04:01:01.075Z,102139.00
2023-03-02T04:08:35.109Z,102132.81
2023-03-02T04:16:10.297Z,102130.75
2023-03-02T04:23:44.388Z,102128.75
2023-03-02T04:31:19.690Z,102131.25
2023-03-02T04:38:54.614Z,102129.31
2023-03-02T04:46:30.051Z,102151.06
2023-03-02T04:54:06.259Z,102142.81
2023-03-02T05:01:42.083Z,102142.69
2023-03-02T05:09:16.455Z,102124.72
2023-03-02T05:16:52.280Z,102119.50
2023-03-02T05:24:26.544Z,102121.22
2023-03-02T05:32:01.934Z,102139.56
2023-03-02T05:39:36.099Z,102131.56
2023-03-02T05:47:11.640Z,102139.03
2023-03-02T05:54:45.676Z,102128.44
2023-03-02T06:02:21.080Z,102130.38
2023-03-02T06:09:55.094Z,102137.44
2023-03-02T06:17:30.130Z,102144.53
2023-03-02T06:25:04.186Z,102144.78
2023-03-02T06:32:39.485Z,102144.25
2023-03-02T06:40:14.810Z,102154.31
2023-03-02T06:47:50.111Z,102154.72
2023-03-02T06:55:24.095Z,102156.41
2023-03-02T07:02:59.284Z,102152.06
2023-03-02T07:10:33.213Z,102147.41
2023-03-02T07:18:08.395Z,102152.69
2023-03-02T07:25:42.297Z,102154.31
2023-03-02T07:33:17.794Z,102156.16
2023-03-02T07:40:51.819Z,102154.31
2023-03-02T07:48:26.980Z,102149.69
2023-03-02T07:56:02.277Z,102149.09
2023-03-02T08:03:37.952Z,102157.34
2023-03-02T08:11:13.780Z,102152.25
2023-03-02T08:18:49.356Z,102144.50
2023-03-02T08:26:23.441Z,102153.19
2023-03-02T08:33:59.563Z,102144.03
2023-03-02T08:41:35.294Z,102148.13
2023-03-02T08:57:03.366Z,102123.94
2023-03-02T09:04:38.879Z,102124.50
2023-03-02T09:12:12.834Z,102110.56
2023-03-02T09:19:49.640Z,102111.03
2023-03-02T09:27:23.447Z,102099.13
2023-03-02T09:34:58.806Z,102099.63
2023-03-02T09:42:49.929Z,102103.56
2023-03-02T09:50:35.366Z,102099.28
2023-03-02T09:58:16.864Z,102095.06
2023-03-02T10:05:54.712Z,102097.59
2023-03-02T10:13:32.122Z,102095.13
2023-03-02T10:21:15.574Z,102099.50
2023-03-02T10:28:52.155Z,102104.88
2023-03-02T10:36:29.631Z,102098.81
2023-03-02T10:44:07.575Z,102097.09
2023-03-02T10:51:44.006Z,102081.16
2023-03-02T10:59:36.551Z,102082.47
2023-03-02T11:07:16.453Z,102079.06
2023-03-02T11:14:50.350Z,102078.97
2023-03-02T11:22:34.187Z,102081.09
2023-03-02T11:30:16.046Z,102074.78
2023-03-02T11:37:53.175Z,102063.31
2023-03-02T11:45:29.314Z,102062.28
2023-03-02T12:01:00.434Z,102045.50
2023-03-02T12:08:40.330Z,102041.00
2023-03-02T12:16:21.639Z,102045.91
2023-03-02T12:24:00.620Z,102030.03
2023-03-02T12:31:43.669Z,102015.72
2023-03-02T12:39:35.461Z,102001.13
2023-03-02T12:47:15.835Z,101993.47
2023-03-02T12:55:01.596Z,101997.75
2023-03-02T13:02:37.347Z,101997.50
2023-03-02T13:10:27.291Z,101968.75
2023-03-02T13:18:01.566Z,101965.03
2023-03-02T13:33:29.860Z,101964.28
2023-03-02T13:49:14.227Z,101940.91
2023-03-02T13:56:52.282Z,101928.97
2023-03-02T14:04:26.287Z,101927.00
2023-03-02T14:12:01.506Z,101915.56
2023-03-02T14:19:35.303Z,101913.59
2023-03-02T14:27:12.217Z,101903.41
2023-03-02T14:34:46.659Z,101895.56
2023-03-02T14:42:23.291Z,101889.50
2023-03-02T14:49:57.212Z,101878.31
2023-03-02T14:57:38.241Z,101875.06
2023-03-02T15:05:12.249Z,101886.03
2023-03-02T15:12:48.279Z,101883.97
2023-03-02T15:20:22.465Z,101893.03
2023-03-02T15:27:58.415Z,101901.31
2023-03-02T15:35:32.548Z,101893.84
2023-03-02T15:51:00.357Z,101882.16
2023-03-02T15:58:35.766Z,101879.53
2023-03-02T16:06:13.405Z,101874.94
2023-03-02T16:13:49.363Z,101882.13
2023-03-02T16:21:23.957Z,101877.44
2023-03-02T16:29:00.785Z,101874.59
2023-03-02T16:36:35.373Z,101870.72
2023-03-02T16:44:13.493Z,101873.16
2023-03-02T16:51:47.501Z,101884.09
2023-03-02T16:59:22.688Z,101891.28
2023-03-02T17:07:00.997Z,101898.03
2023-03-02T17:14:36.612Z,101905.91
2023-03-02T17:22:10.404Z,101904.47
2023-03-02T17:29:45.596Z,101918.63
2023-03-02T17:37:19.674Z,101917.44
2023-03-02T17:44:58.776Z,101919.53
2023-03-02T17:52:32.768Z,101920.84
2023-03-02T18:00:10.952Z,101917.72
2023-03-02T18:07:44.839Z,101929.50
2023-03-02T18:15:20.814Z,101930.75
2023-03-02T18:23:23.012Z,101940.94
2023-03-02T18:31:10.472Z,101942.44
2023-03-02T18:38:44.821Z,101946.31
2023-03-02T18:46:22.401Z,101934.88
2023-03-02T18:53:56.517Z,101940.84
2023-03-02T19:01:35.627Z,101944.00
2023-03-02T19:09:09.714Z,101934.28
2023-03-02T19:16:45.351Z,101929.81
2023-03-02T19:24:19.251Z,101931.41
2023-03-02T19:39:47.597Z,101938.44
2023-03-02T19:55:46.158Z,101950.22
2023-03-02T20:03:20.338Z,101958.09
2023-03-02T20:10:55.593Z,101953.66
2023-03-02T20:18:29.756Z,101949.34
2023-03-02T20:26:06.636Z,101970.41
2023-03-02T20:33:43.365Z,101966.06
2023-03-02T20:41:21.735Z,101974.31
2023-03-02T20:48:55.781Z,101969.28
2023-03-02T20:56:31.407Z,101972.13
2023-03-02T21:04:05.898Z,101973.97
2023-03-02T21:19:34.148Z,101982.97
2023-03-02T21:27:09.693Z,101984.81
2023-03-02T21:34:45.009Z,101973.19
2023-03-02T21:42:21.202Z,101966.75
2023-03-02T21:49:55.627Z,101976.59
2023-03-02T21:57:30.993Z,101962.78
2023-03-02T22:05:05.401Z,101963.25
2023-03-02T22:12:42.116Z,101954.78
2023-03-02T22:20:19.083Z,101950.31
2023-03-02T22:27:55.307Z,101943.81
2023-03-02T22:35:29.620Z,101947.47
2023-03-02T22:43:15.281Z,101943.22
2023-03-02T22:50:51.178Z,101935.94
2023-03-02T23:06:28.741Z,101920.75
2023-03-02T23:14:03.909Z,101922.13
2023-03-02T23:21:42.223Z,101911.28
2023-03-02T23:29:16.184Z,101900.53
2023-03-02T23:36:51.512Z,101884.78
2023-03-02T23:44:25.525Z,101883.63
2023-03-02T23:52:00.971Z,101903.97
2023-03-02T23:59:34.934Z,101910.34
